createdAt,value
2022-10-28T00:01:19.203Z,13.05
2022-10-28T00:03:49.304Z,12.77
2022-10-28T00:06:19.356Z,13.75
2022-10-28T00:08:47.458Z,13.68
2022-10-28T00:11:20.760Z,13.38
2022-10-28T00:13:50.918Z,13.25
2022-10-28T00:16:21.203Z,13.10
2022-10-28T00:18:50.268Z,13.68
2022-10-28T00:21:20.740Z,13.73
2022-10-28T00:23:48.293Z,13.10
2022-10-28T00:26:18.109Z,12.77
2022-10-28T00:28:50.588Z,13.68
2022-10-28T00:31:19.938Z,14.57
2022-10-28T00:33:47.747Z,14.55
2022-10-28T00:36:20.495Z,14.07
2022-10-28T00:38:49.637Z,14.32
2022-10-28T00:41:21.110Z,14.55
2022-10-28T00:43:51.837Z,13.47
2022-10-28T00:46:42.634Z,13.95
2022-10-28T00:49:29.799Z,15.90
2022-10-28T00:52:03.249Z,14.82
2022-10-28T00:54:31.694Z,13.80
2022-10-28T00:57:02.998Z,12.65
2022-10-28T00:59:35.006Z,12.55
2022-10-28T01:02:03.288Z,15.23
2022-10-28T01:04:31.582Z,13.02
2022-10-28T01:07:01.513Z,12.60
2022-10-28T01:09:28.920Z,14.13
2022-10-28T01:12:44.578Z,13.40
2022-10-28T01:15:47.270Z,13.40
2022-10-28T01:18:23.395Z,12.23
2022-10-28T01:21:09.644Z,14.48
2022-10-28T01:23:39.798Z,15.02
2022-10-28T01:26:24.206Z,14.70
2022-10-28T01:29:29.173Z,16.08
2022-10-28T01:32:14.603Z,15.18
2022-10-28T01:35:18.311Z,14.98
2022-10-28T01:38:16.210Z,15.05
2022-10-28T01:40:54.134Z,16.52
2022-10-28T01:43:41.232Z,16.45
2022-10-28T01:46:15.365Z,16.75
2022-10-28T01:49:01.722Z,17.25
2022-10-28T01:51:34.881Z,18.92
2022-10-28T01:54:06.225Z,17.42
2022-10-28T01:56:38.238Z,18.48
2022-10-28T01:59:10.724Z,18.23
2022-10-28T02:01:38.308Z,16.40
2022-10-28T02:04:05.887Z,18.15
2022-10-28T02:06:34.838Z,16.27
2022-10-28T02:09:15.557Z,16.17
2022-10-28T02:11:53.979Z,18.35
2022-10-28T02:14:40.793Z,19.08
2022-10-28T02:17:19.902Z,16.17
2022-10-28T02:20:09.676Z,14.63
2022-10-28T02:22:58.022Z,15.60
2022-10-28T02:26:04.233Z,14.07
2022-10-28T02:28:40.912Z,14.15
2022-10-28T02:31:22.854Z,14.50
2022-10-28T02:33:54.801Z,11.43
2022-10-28T02:36:25.601Z,14.02
2022-10-28T02:38:56.242Z,13.13
2022-10-28T02:41:29.523Z,13.38
2022-10-28T02:44:01.914Z,13.18
2022-10-28T02:49:06.205Z,12.50
2022-10-28T02:52:04.842Z,12.10
2022-10-28T02:54:53.161Z,12.98
2022-10-28T02:57:24.881Z,11.55
2022-10-28T02:59:58.581Z,12.63
2022-10-28T03:02:26.852Z,11.25
2022-10-28T03:04:54.707Z,10.98
2022-10-28T03:07:22.668Z,11.85
2022-10-28T03:09:50.112Z,12.95
2022-10-28T03:12:17.835Z,12.50
2022-10-28T03:14:45.277Z,11.75
2022-10-28T03:17:12.784Z,11.68
2022-10-28T03:19:40.333Z,10.63
2022-10-28T03:22:08.233Z,11.85
2022-10-28T03:24:35.709Z,10.57
2022-10-28T03:27:03.246Z,11.57
2022-10-28T03:29:30.628Z,11.82
2022-10-28T03:31:58.067Z,12.32
2022-10-28T03:34:25.497Z,12.18
2022-10-28T03:36:52.960Z,12.82
2022-10-28T03:39:20.535Z,10.93
2022-10-28T03:41:47.967Z,11.40
2022-10-28T03:44:15.453Z,13.43
2022-10-28T03:46:42.952Z,11.40
2022-10-28T03:49:10.441Z,12.32
2022-10-28T03:51:37.840Z,10.52
2022-10-28T03:54:05.305Z,12.13
2022-10-28T03:56:32.745Z,10.73
2022-10-28T03:59:00.157Z,12.98
2022-10-28T04:01:27.673Z,11.70
2022-10-28T04:03:55.193Z,11.38
2022-10-28T04:06:22.712Z,11.98
2022-10-28T04:08:50.121Z,12.52
2022-10-28T04:11:17.565Z,11.38
2022-10-28T04:13:45.000Z,11.60
2022-10-28T04:16:12.435Z,12.02
2022-10-28T04:18:39.832Z,12.90
2022-10-28T04:21:07.330Z,12.80
2022-10-28T04:23:34.742Z,11.65
2022-10-28T04:26:02.284Z,12.52
2022-10-28T04:28:29.757Z,13.45
2022-10-28T04:30:57.274Z,10.63
2022-10-28T04:33:24.733Z,12.57
2022-10-28T04:35:52.171Z,13.07
2022-10-28T04:38:19.676Z,12.00
2022-10-28T04:40:50.312Z,11.32
2022-10-28T04:43:17.706Z,12.30
2022-10-28T04:45:46.966Z,10.55
2022-10-28T04:48:14.636Z,11.68
2022-10-28T04:50:42.173Z,14.18
2022-10-28T04:53:13.185Z,13.82
2022-10-28T04:55:40.746Z,11.48
2022-10-28T04:58:09.699Z,12.30
2022-10-28T05:00:37.097Z,11.93
2022-10-28T05:03:04.509Z,10.52
2022-10-28T05:05:32.154Z,11.00
2022-10-28T05:07:59.716Z,13.48
2022-10-28T05:10:27.152Z,13.80
2022-10-28T05:12:54.533Z,11.35
2022-10-28T05:15:22.074Z,10.13
2022-10-28T05:17:49.956Z,10.52
2022-10-28T05:20:18.204Z,10.82
2022-10-28T05:22:50.630Z,11.90
2022-10-28T05:25:18.839Z,11.05
2022-10-28T05:27:46.445Z,10.32
2022-10-28T05:30:14.319Z,12.52
2022-10-28T05:32:41.898Z,10.80
2022-10-28T05:35:10.524Z,10.05
2022-10-28T05:37:39.108Z,11.18
2022-10-28T05:40:07.324Z,10.95
2022-10-28T05:42:41.193Z,11.27
2022-10-28T05:45:09.686Z,11.77
2022-10-28T05:47:39.285Z,10.20
2022-10-28T05:50:07.778Z,10.95
2022-10-28T05:52:35.140Z,11.77
2022-10-28T05:55:02.537Z,10.75
2022-10-28T05:57:29.891Z,10.80
2022-10-28T05:59:57.275Z,11.20
2022-10-28T06:02:24.625Z,12.98
2022-10-28T06:04:52.014Z,10.25
2022-10-28T06:07:19.421Z,11.73
2022-10-28T06:09:46.832Z,10.68
2022-10-28T06:12:12.656Z,9.75
2022-10-28T06:14:40.003Z,11.15
2022-10-28T06:17:07.423Z,10.65
2022-10-28T06:19:34.796Z,10.43
2022-10-28T06:22:02.179Z,9.75
2022-10-28T06:24:29.574Z,10.40
2022-10-28T06:26:57.002Z,10.15
2022-10-28T06:29:24.570Z,11.25
2022-10-28T06:31:51.979Z,13.23
2022-10-28T06:34:19.489Z,12.63
2022-10-28T06:36:46.902Z,12.40
2022-10-28T06:39:14.377Z,10.90
2022-10-28T06:41:41.911Z,12.65
2022-10-28T06:44:09.355Z,11.45
2022-10-28T06:46:38.272Z,11.93
2022-10-28T06:49:05.918Z,12.82
2022-10-28T06:51:33.342Z,13.15
2022-10-28T06:54:00.793Z,14.25
2022-10-28T06:56:29.123Z,14.45
2022-10-28T06:58:56.562Z,15.20
2022-10-28T07:01:24.140Z,15.25
2022-10-28T07:03:51.564Z,14.73
2022-10-28T07:06:19.076Z,14.25
2022-10-28T07:08:46.440Z,16.52
2022-10-28T07:11:13.903Z,17.77
2022-10-28T07:13:42.507Z,19.27
2022-10-28T07:16:11.694Z,20.73
2022-10-28T07:18:39.140Z,21.98
2022-10-28T07:21:06.563Z,22.77
2022-10-28T07:23:34.346Z,24.98
2022-10-28T07:26:01.888Z,23.60
2022-10-28T07:28:29.676Z,28.55
2022-10-28T07:31:04.335Z,22.15
2022-10-28T07:33:31.802Z,26.42
2022-10-28T07:35:59.166Z,21.17
2022-10-28T07:38:26.640Z,22.60
2022-10-28T07:40:53.998Z,22.10
2022-10-28T07:43:21.371Z,23.65
2022-10-28T07:45:49.023Z,21.08
2022-10-28T07:48:16.411Z,24.95
2022-10-28T07:50:43.823Z,20.20
2022-10-28T07:53:11.260Z,20.13
2022-10-28T07:55:40.329Z,23.10
2022-10-28T07:58:09.349Z,24.10
2022-10-28T08:00:36.857Z,22.88
2022-10-28T08:03:04.763Z,20.55
2022-10-28T08:05:32.148Z,26.45
2022-10-28T08:07:59.511Z,20.17
2022-10-28T08:10:27.184Z,20.90
2022-10-28T08:12:58.076Z,21.70
2022-10-28T08:15:25.811Z,21.88
2022-10-28T08:17:54.149Z,23.58
2022-10-28T08:20:21.869Z,24.10
2022-10-28T08:22:49.422Z,25.02
2022-10-28T08:25:16.885Z,21.95
2022-10-28T08:27:44.303Z,22.20
2022-10-28T08:30:12.252Z,22.38
2022-10-28T08:32:39.686Z,19.67
2022-10-28T08:35:07.584Z,20.38
2022-10-28T08:37:35.461Z,22.50
2022-10-28T08:40:02.969Z,25.63
2022-10-28T08:42:41.635Z,24.15
2022-10-28T08:45:29.996Z,23.08
2022-10-28T08:48:20.750Z,23.05
2022-10-28T08:51:01.320Z,22.38
2022-10-28T08:53:55.226Z,25.60
2022-10-28T08:56:31.738Z,24.15
2022-10-28T08:59:07.496Z,23.58
2022-10-28T09:01:48.615Z,23.60
2022-10-28T09:04:34.972Z,22.87
2022-10-28T09:07:03.916Z,22.38
2022-10-28T09:09:32.225Z,24.65
2022-10-28T09:12:19.211Z,21.08
2022-10-28T09:14:49.623Z,23.70
2022-10-28T09:17:21.909Z,24.92
2022-10-28T09:19:59.599Z,24.35
2022-10-28T09:22:53.129Z,22.80
2022-10-28T09:25:48.679Z,23.73
2022-10-28T09:28:30.248Z,20.92
2022-10-28T09:31:25.949Z,24.23
2022-10-28T09:34:02.244Z,25.58
2022-10-28T09:36:37.842Z,26.42
2022-10-28T09:39:07.382Z,24.70
2022-10-28T09:41:38.962Z,23.98
2022-10-28T09:44:20.139Z,20.67
2022-10-28T09:46:50.520Z,26.77
2022-10-28T09:49:31.733Z,23.70
2022-10-28T09:52:06.106Z,25.40
2022-10-28T09:54:40.108Z,26.23
2022-10-28T09:57:08.089Z,24.65
2022-10-28T09:59:35.866Z,24.05
2022-10-28T10:02:04.651Z,25.95
2022-10-28T10:04:32.200Z,23.35
2022-10-28T10:07:03.181Z,22.85
2022-10-28T10:09:33.166Z,21.17
2022-10-28T10:12:07.860Z,25.75
2022-10-28T10:14:50.321Z,23.83
2022-10-28T10:17:27.133Z,23.60
2022-10-28T10:20:02.829Z,22.92
2022-10-28T10:22:33.088Z,21.95
2022-10-28T10:25:01.106Z,17.75
2022-10-28T10:27:30.760Z,19.05
2022-10-28T10:29:58.960Z,22.25
2022-10-28T10:32:32.247Z,19.45
2022-10-28T10:35:16.228Z,16.15
2022-10-28T10:37:47.318Z,17.73
2022-10-28T10:40:33.586Z,18.80
2022-10-28T10:43:27.446Z,16.80
2022-10-28T10:46:01.014Z,16.80
2022-10-28T10:48:32.195Z,17.05
2022-10-28T10:51:07.864Z,13.68
2022-10-28T10:53:36.608Z,16.15
2022-10-28T10:56:10.892Z,13.25
2022-10-28T10:58:47.173Z,13.90
2022-10-28T11:01:24.223Z,14.73
2022-10-28T11:04:01.132Z,12.68
2022-10-28T11:06:32.102Z,14.82
2022-10-28T11:09:16.859Z,15.43
2022-10-28T11:11:44.801Z,13.27
2022-10-28T11:14:15.037Z,14.15
2022-10-28T11:16:52.557Z,14.63
2022-10-28T11:19:35.257Z,14.07
2022-10-28T11:22:17.906Z,12.93
2022-10-28T11:25:21.864Z,12.25
2022-10-28T11:27:55.507Z,14.02
2022-10-28T11:30:34.894Z,14.98
2022-10-28T11:33:33.937Z,12.70
2022-10-28T11:36:19.894Z,11.02
2022-10-28T11:39:13.462Z,11.15
2022-10-28T11:41:59.391Z,11.88
2022-10-28T11:45:21.457Z,13.82
2022-10-28T11:47:57.864Z,10.95
2022-10-28T11:51:06.719Z,12.93
2022-10-28T11:54:04.763Z,17.92
2022-10-28T11:56:45.392Z,11.65
2022-10-28T11:59:15.451Z,12.80
2022-10-28T12:02:11.677Z,9.20
2022-10-28T12:05:12.988Z,13.75
2022-10-28T12:08:00.605Z,12.15
2022-10-28T12:10:39.239Z,10.65
2022-10-28T12:13:15.580Z,11.63
2022-10-28T12:16:19.548Z,13.65
2022-10-28T12:18:57.307Z,9.95
2022-10-28T12:21:27.638Z,14.55
2022-10-28T12:23:57.702Z,11.52
2022-10-28T12:26:45.648Z,10.65
2022-10-28T12:29:24.470Z,13.65
2022-10-28T12:32:04.365Z,16.00
2022-10-28T12:37:13.716Z,16.60
2022-10-28T12:40:18.248Z,16.90
2022-10-28T12:42:57.707Z,12.10
2022-10-28T12:45:25.820Z,14.00
2022-10-28T12:48:17.164Z,12.57
2022-10-28T12:51:00.944Z,12.38
2022-10-28T12:53:49.244Z,14.32
2022-10-28T12:56:24.384Z,14.13
2022-10-28T12:59:09.825Z,13.18
2022-10-28T13:01:37.879Z,13.00
2022-10-28T13:04:05.938Z,14.13
2022-10-28T13:06:48.132Z,14.85
2022-10-28T13:09:22.964Z,15.30
2022-10-28T13:12:05.287Z,12.20
2022-10-28T13:17:40.044Z,20.08
2022-10-28T13:20:38.812Z,6.35
2022-10-28T13:23:40.639Z,7.68
2022-10-28T13:26:16.642Z,8.97
2022-10-28T13:28:51.671Z,8.05
2022-10-28T13:31:20.448Z,7.28
2022-10-28T13:33:53.389Z,7.85
2022-10-28T13:36:27.403Z,7.50
2022-10-28T13:39:06.113Z,9.23
2022-10-28T13:41:36.415Z,7.03
2022-10-28T13:44:09.275Z,9.93
2022-10-28T13:47:01.611Z,8.93
2022-10-28T13:49:38.344Z,8.25
2022-10-28T13:52:11.338Z,8.00
2022-10-28T13:54:44.572Z,8.60
2022-10-28T13:57:35.518Z,10.65
2022-10-28T14:00:25.777Z,8.98
2022-10-28T14:02:56.621Z,9.07
2022-10-28T14:05:44.308Z,8.07
2022-10-28T14:08:38.064Z,8.73
2022-10-28T14:11:07.342Z,8.93
2022-10-28T14:13:56.864Z,6.82
2022-10-28T14:16:43.380Z,10.40
2022-10-28T14:19:10.705Z,8.65
2022-10-28T14:22:02.535Z,10.55
2022-10-28T14:24:31.903Z,7.10
2022-10-28T14:27:08.238Z,9.27
2022-10-28T14:30:12.447Z,7.93
2022-10-28T14:32:44.015Z,8.88
2022-10-28T14:35:14.073Z,10.70
2022-10-28T14:38:30.367Z,10.20
2022-10-28T14:41:06.414Z,8.25
2022-10-28T14:43:45.784Z,9.18
2022-10-28T14:46:28.312Z,10.05
2022-10-28T14:49:02.602Z,8.38
2022-10-28T14:51:39.136Z,10.63
2022-10-28T14:54:13.570Z,12.38
2022-10-28T14:56:41.716Z,8.77
2022-10-28T14:59:25.883Z,11.25
2022-10-28T15:02:18.548Z,9.00
2022-10-28T15:04:48.547Z,8.70
2022-10-28T15:07:20.220Z,9.50
2022-10-28T15:09:53.471Z,10.85
2022-10-28T15:12:26.013Z,12.70
2022-10-28T15:17:28.768Z,9.85
2022-10-28T15:19:59.101Z,12.25
2022-10-28T15:22:32.197Z,11.23
2022-10-28T15:25:12.305Z,11.32
2022-10-28T15:27:43.301Z,10.65
2022-10-28T15:30:16.979Z,9.73
2022-10-28T15:32:45.597Z,12.57
2022-10-28T15:35:28.176Z,12.18
2022-10-28T15:37:57.608Z,14.93
2022-10-28T15:40:30.513Z,14.70
2022-10-28T15:43:02.306Z,15.18
2022-10-28T15:45:32.199Z,12.48
2022-10-28T15:48:01.556Z,15.43
2022-10-28T15:50:31.678Z,14.13
2022-10-28T15:53:11.256Z,12.68
2022-10-28T15:56:07.041Z,13.70
2022-10-28T15:58:35.568Z,14.43
2022-10-28T16:01:03.321Z,12.57
2022-10-28T16:03:39.863Z,15.23
2022-10-28T16:06:40.547Z,15.18
2022-10-28T16:09:19.765Z,16.77
2022-10-28T16:11:50.182Z,16.02
2022-10-28T16:14:40.029Z,18.15
2022-10-28T16:17:28.035Z,18.17
2022-10-28T16:19:58.364Z,19.15
2022-10-28T16:22:28.579Z,21.90
2022-10-28T16:24:57.516Z,20.42
2022-10-28T16:27:32.653Z,22.00
2022-10-28T16:30:00.126Z,20.13
2022-10-28T16:32:49.189Z,23.83
2022-10-28T16:35:21.989Z,20.80
2022-10-28T16:37:54.663Z,18.83
2022-10-28T16:40:52.264Z,19.70
2022-10-28T16:43:19.738Z,22.30
2022-10-28T16:45:48.687Z,22.05
2022-10-28T16:48:17.711Z,22.42
2022-10-28T16:50:49.933Z,24.45
2022-10-28T16:53:18.024Z,26.30
2022-10-28T16:55:46.152Z,28.77
2022-10-28T16:58:13.784Z,29.75
2022-10-28T17:00:41.613Z,26.77
2022-10-28T17:03:14.725Z,30.48
2022-10-28T17:05:43.884Z,57.33
2022-10-28T17:08:12.175Z,47.30
2022-10-28T17:10:42.212Z,43.05
2022-10-28T17:13:14.312Z,32.28
2022-10-28T17:15:42.658Z,29.48
2022-10-28T17:18:12.075Z,31.10
2022-10-28T17:20:39.526Z,31.80
2022-10-28T17:23:07.265Z,31.15
2022-10-28T17:25:34.784Z,26.15
2022-10-28T17:28:02.371Z,28.67
2022-10-28T17:30:31.107Z,27.60
2022-10-28T17:32:58.528Z,27.02
2022-10-28T17:35:27.265Z,26.73
2022-10-28T17:37:54.822Z,26.33
2022-10-28T17:40:22.327Z,29.33
2022-10-28T17:42:50.498Z,26.65
2022-10-28T17:45:21.062Z,25.67
2022-10-28T17:47:49.611Z,27.25
2022-10-28T17:50:17.083Z,27.30
2022-10-28T17:52:44.480Z,23.45
2022-10-28T17:55:11.935Z,23.13
2022-10-28T17:57:39.382Z,23.35
2022-10-28T18:00:07.423Z,22.65
2022-10-28T18:02:40.266Z,24.63
2022-10-28T18:05:08.920Z,23.50
2022-10-28T18:07:36.405Z,21.65
2022-10-28T18:10:04.210Z,21.30
2022-10-28T18:12:31.771Z,18.55
2022-10-28T18:14:59.177Z,39.88
2022-10-28T18:17:26.629Z,26.23
2022-10-28T18:19:57.643Z,23.55
2022-10-28T18:24:54.124Z,17.33
2022-10-28T18:27:21.541Z,18.73
2022-10-28T18:29:48.909Z,16.05
2022-10-28T18:32:16.424Z,13.43
2022-10-28T18:34:43.939Z,14.93
2022-10-28T18:37:11.791Z,13.80
2022-10-28T18:39:39.274Z,13.45
2022-10-28T18:42:07.425Z,15.50
2022-10-28T18:44:36.748Z,14.95
2022-10-28T18:47:04.162Z,12.65
2022-10-28T18:49:31.628Z,14.52
2022-10-28T18:51:59.705Z,14.48
2022-10-28T18:54:27.069Z,14.68
2022-10-28T18:56:57.588Z,14.57
2022-10-28T18:59:25.291Z,15.43
2022-10-28T19:01:52.828Z,14.52
2022-10-28T19:04:20.249Z,15.20
2022-10-28T19:06:47.722Z,14.15
2022-10-28T19:09:15.209Z,17.55
2022-10-28T19:11:42.620Z,14.95
2022-10-28T19:14:10.543Z,14.10
2022-10-28T19:16:37.970Z,14.98
2022-10-28T19:19:05.925Z,14.32
2022-10-28T19:21:33.497Z,14.43
2022-10-28T19:24:01.144Z,14.32
2022-10-28T19:26:28.622Z,16.40
2022-10-28T19:28:56.064Z,15.55
2022-10-28T19:31:25.294Z,16.95
2022-10-28T19:33:54.084Z,13.30
2022-10-28T19:36:29.711Z,13.45
2022-10-28T19:38:57.968Z,14.60
2022-10-28T19:41:27.772Z,14.57
2022-10-28T19:43:58.471Z,13.50
2022-10-28T19:46:28.120Z,13.95
2022-10-28T19:48:58.465Z,13.07
2022-10-28T19:51:28.078Z,13.90
2022-10-28T19:54:00.597Z,14.98
2022-10-28T19:56:30.266Z,14.88
2022-10-28T19:58:59.733Z,14.90
2022-10-28T20:01:30.316Z,15.07
2022-10-28T20:03:58.239Z,16.17
2022-10-28T20:06:29.867Z,17.60
2022-10-28T20:08:57.332Z,17.08
2022-10-28T20:11:27.247Z,16.27
2022-10-28T20:14:00.752Z,17.60
2022-10-28T20:16:28.890Z,17.17
2022-10-28T20:18:57.597Z,19.02
2022-10-28T20:21:27.285Z,18.60
2022-10-28T20:23:56.238Z,19.33
2022-10-28T20:26:26.256Z,18.30
2022-10-28T20:28:54.186Z,17.33
2022-10-28T20:31:23.711Z,18.23
2022-10-28T20:33:56.821Z,16.98
2022-10-28T20:36:30.126Z,18.13
2022-10-28T20:39:01.673Z,18.77
2022-10-28T20:41:31.975Z,23.80
2022-10-28T20:44:00.366Z,18.63
2022-10-28T20:46:28.346Z,17.25
2022-10-28T20:48:56.681Z,17.00
2022-10-28T20:51:27.164Z,15.10
2022-10-28T20:53:54.809Z,18.13
2022-10-28T20:56:24.995Z,17.40
2022-10-28T20:58:53.772Z,18.15
2022-10-28T21:01:23.398Z,17.10
2022-10-28T21:03:58.158Z,17.20
2022-10-28T21:06:26.647Z,16.00
2022-10-28T21:08:55.071Z,17.38
2022-10-28T21:11:23.622Z,15.85
2022-10-28T21:13:53.353Z,17.55
2022-10-28T21:16:21.968Z,15.73
2022-10-28T21:18:50.148Z,15.52
2022-10-28T21:21:19.320Z,16.08
2022-10-28T21:23:46.699Z,15.30
2022-10-28T21:26:14.459Z,15.82
2022-10-28T21:28:42.099Z,14.98
2022-10-28T21:31:12.116Z,16.02
2022-10-28T21:33:40.545Z,14.98
2022-10-28T21:36:11.633Z,15.48
2022-10-28T21:38:39.499Z,15.80
2022-10-28T21:41:18.137Z,15.00
2022-10-28T21:43:50.280Z,14.75
2022-10-28T21:46:19.516Z,16.30
2022-10-28T21:48:47.396Z,14.02
2022-10-28T21:51:16.624Z,15.43
2022-10-28T21:53:45.108Z,15.80
2022-10-28T21:56:19.055Z,16.40
2022-10-28T21:58:48.568Z,17.70
2022-10-28T22:01:21.833Z,17.15
2022-10-28T22:03:50.316Z,17.90
2022-10-28T22:06:17.891Z,16.55
2022-10-28T22:08:46.808Z,16.42
2022-10-28T22:11:17.348Z,15.45
2022-10-28T22:13:45.291Z,15.75
2022-10-28T22:16:15.185Z,16.55
2022-10-28T22:18:43.615Z,15.98
2022-10-28T22:21:14.042Z,17.73
2022-10-28T22:23:41.695Z,16.38
2022-10-28T22:26:12.683Z,15.20
2022-10-28T22:28:40.450Z,15.40
2022-10-28T22:31:10.422Z,15.35
2022-10-28T22:33:38.460Z,15.25
2022-10-28T22:36:11.812Z,16.23
2022-10-28T22:38:39.737Z,15.48
2022-10-28T22:41:15.367Z,14.77
2022-10-28T22:43:44.257Z,15.85
2022-10-28T22:46:13.255Z,15.38
2022-10-28T22:48:40.920Z,14.02
2022-10-28T22:51:09.699Z,12.85
2022-10-28T22:53:38.964Z,13.82
2022-10-28T22:56:08.083Z,14.35
2022-10-28T22:58:35.513Z,15.65
2022-10-28T23:01:18.055Z,13.60
2022-10-28T23:03:47.935Z,16.10
2022-10-28T23:06:18.075Z,14.00
2022-10-28T23:08:45.888Z,13.88
2022-10-28T23:11:14.721Z,14.23
2022-10-28T23:13:42.326Z,14.48
2022-10-28T23:16:14.714Z,14.55
2022-10-28T23:21:15.161Z,14.02
2022-10-28T23:23:43.071Z,13.93
2022-10-28T23:26:11.339Z,13.40
2022-10-28T23:28:39.076Z,13.93
2022-10-28T23:31:07.255Z,14.40
2022-10-28T23:33:35.129Z,15.18
2022-10-28T23:36:04.310Z,16.08
2022-10-28T23:38:32.652Z,14.65
2022-10-28T23:41:05.489Z,14.25
2022-10-28T23:43:33.306Z,13.73
2022-10-28T23:46:01.553Z,13.57
2022-10-28T23:48:29.589Z,13.98
2022-10-28T23:50:57.110Z,14.70
2022-10-28T23:53:24.936Z,14.93
2022-10-28T23:55:52.870Z,13.32
2022-10-28T23:58:21.625Z,14.57
